sensor_id;sensor_type;location;lat;lon;timestamp;temperature;humidity
19397;DHT22;9834;48.076;11.878;2022-12-29T00:01:35;0.90;99.90
19397;DHT22;9834;48.076;11.878;2022-12-29T00:04:03;0.90;99.90
19397;DHT22;9834;48.076;11.878;2022-12-29T00:06:30;0.90;99.90
19397;DHT22;9834;48.076;11.878;2022-12-29T00:08:57;0.90;99.90
19397;DHT22;9834;48.076;11.878;2022-12-29T00:11:26;0.90;99.90
19397;DHT22;9834;48.076;11.878;2022-12-29T00:13:53;0.90;99.90
19397;DHT22;9834;48.076;11.878;2022-12-29T00:16:41;0.90;99.90
19397;DHT22;9834;48.076;11.878;2022-12-29T00:19:09;0.80;99.90
19397;DHT22;9834;48.076;11.878;2022-12-29T00:21:57;0.80;99.90
19397;DHT22;9834;48.076;11.878;2022-12-29T00:24:43;0.80;99.90
19397;DHT22;9834;48.076;11.878;2022-12-29T00:27:28;0.80;99.90
19397;DHT22;9834;48.076;11.878;2022-12-29T00:30:16;0.90;99.90
19397;DHT22;9834;48.076;11.878;2022-12-29T00:33:09;0.80;99.90
19397;DHT22;9834;48.076;11.878;2022-12-29T00:35:56;0.90;99.90
19397;DHT22;9834;48.076;11.878;2022-12-29T00:38:23;1.00;99.90
19397;DHT22;9834;48.076;11.878;2022-12-29T00:41:08;0.80;99.90
19397;DHT22;9834;48.076;11.878;2022-12-29T00:43:52;0.80;99.90
19397;DHT22;9834;48.076;11.878;2022-12-29T00:46:31;0.70;99.90
19397;DHT22;9834;48.076;11.878;2022-12-29T00:49:00;0.80;99.90
19397;DHT22;9834;48.076;11.878;2022-12-29T00:51:45;0.70;99.90
19397;DHT22;9834;48.076;11.878;2022-12-29T00:54:13;0.70;99.90
19397;DHT22;9834;48.076;11.878;2022-12-29T00:56:40;0.70;99.90
19397;DHT22;9834;48.076;11.878;2022-12-29T00:59:08;0.70;99.90
19397;DHT22;9834;48.076;11.878;2022-12-29T01:01:37;0.70;99.90
19397;DHT22;9834;48.076;11.878;2022-12-29T01:04:06;0.80;99.90
19397;DHT22;9834;48.076;11.878;2022-12-29T01:06:34;0.60;99.90
19397;DHT22;9834;48.076;11.878;2022-12-29T01:09:01;0.60;99.90
19397;DHT22;9834;48.076;11.878;2022-12-29T01:11:46;0.60;99.90
19397;DHT22;9834;48.076;11.878;2022-12-29T01:14:13;0.50;99.90
19397;DHT22;9834;48.076;11.878;2022-12-29T01:16:41;0.50;99.90
19397;DHT22;9834;48.076;11.878;2022-12-29T01:19:09;0.50;99.90
19397;DHT22;9834;48.076;11.878;2022-12-29T01:21:36;0.60;99.90
19397;DHT22;9834;48.076;11.878;2022-12-29T01:24:03;0.60;99.90
19397;DHT22;9834;48.076;11.878;2022-12-29T01:26:31;0.60;99.90
19397;DHT22;9834;48.076;11.878;2022-12-29T01:28:57;0.70;99.90
19397;DHT22;9834;48.076;11.878;2022-12-29T01:31:24;0.60;99.90
19397;DHT22;9834;48.076;11.878;2022-12-29T01:33:51;0.70;99.90
19397;DHT22;9834;48.076;11.878;2022-12-29T01:36:20;0.70;99.90
19397;DHT22;9834;48.076;11.878;2022-12-29T01:38:47;0.70;99.90
19397;DHT22;9834;48.076;11.878;2022-12-29T01:41:15;0.60;99.90
19397;DHT22;9834;48.076;11.878;2022-12-29T01:43:45;0.60;99.90
19397;DHT22;9834;48.076;11.878;2022-12-29T01:46:18;0.60;99.90
19397;DHT22;9834;48.076;11.878;2022-12-29T01:48:51;0.50;99.90
19397;DHT22;9834;48.076;11.878;2022-12-29T01:51:20;0.50;99.90
19397;DHT22;9834;48.076;11.878;2022-12-29T01:53:47;0.40;99.90
19397;DHT22;9834;48.076;11.878;2022-12-29T01:56:17;0.40;99.90
19397;DHT22;9834;48.076;11.878;2022-12-29T01:58:48;0.40;99.90
19397;DHT22;9834;48.076;11.878;2022-12-29T02:01:18;0.60;99.90
19397;DHT22;9834;48.076;11.878;2022-12-29T02:03:46;0.40;99.90
19397;DHT22;9834;48.076;11.878;2022-12-29T02:06:22;0.40;99.90
19397;DHT22;9834;48.076;11.878;2022-12-29T02:08:53;0.40;99.90
19397;DHT22;9834;48.076;11.878;2022-12-29T02:11:23;0.40;99.90
19397;DHT22;9834;48.076;11.878;2022-12-29T02:13:51;0.40;99.90
19397;DHT22;9834;48.076;11.878;2022-12-29T02:16:30;0.40;99.90
19397;DHT22;9834;48.076;11.878;2022-12-29T02:19:20;0.30;99.90
19397;DHT22;9834;48.076;11.878;2022-12-29T02:22:04;0.40;99.90
19397;DHT22;9834;48.076;11.878;2022-12-29T02:25:05;0.30;99.90
19397;DHT22;9834;48.076;11.878;2022-12-29T02:27:55;0.40;99.90
19397;DHT22;9834;48.076;11.878;2022-12-29T02:30:46;0.40;99.90
19397;DHT22;9834;48.076;11.878;2022-12-29T02:33:24;0.30;99.90
19397;DHT22;9834;48.076;11.878;2022-12-29T02:35:57;0.30;99.90
19397;DHT22;9834;48.076;11.878;2022-12-29T02:38:34;0.30;99.90
19397;DHT22;9834;48.076;11.878;2022-12-29T02:41:08;0.40;99.90
19397;DHT22;9834;48.076;11.878;2022-12-29T02:43:44;0.40;99.90
19397;DHT22;9834;48.076;11.878;2022-12-29T02:46:19;0.50;99.90
19397;DHT22;9834;48.076;11.878;2022-12-29T02:48:54;0.50;99.90
19397;DHT22;9834;48.076;11.878;2022-12-29T02:51:26;0.50;99.90
19397;DHT22;9834;48.076;11.878;2022-12-29T02:53:55;0.60;99.90
19397;DHT22;9834;48.076;11.878;2022-12-29T02:56:40;0.60;99.90
19397;DHT22;9834;48.076;11.878;2022-12-29T02:59:08;0.60;99.90
19397;DHT22;9834;48.076;11.878;2022-12-29T03:01:50;0.70;99.90
19397;DHT22;9834;48.076;11.878;2022-12-29T03:04:38;0.80;99.90
19397;DHT22;9834;48.076;11.878;2022-12-29T03:07:14;0.80;99.90
19397;DHT22;9834;48.076;11.878;2022-12-29T03:09:51;0.80;99.90
19397;DHT22;9834;48.076;11.878;2022-12-29T03:12:26;0.80;99.90
19397;DHT22;9834;48.076;11.878;2022-12-29T03:15:18;0.80;99.90
19397;DHT22;9834;48.076;11.878;2022-12-29T03:18:10;0.90;99.90
19397;DHT22;9834;48.076;11.878;2022-12-29T03:20:45;0.80;99.90
19397;DHT22;9834;48.076;11.878;2022-12-29T03:23:14;0.90;99.90
19397;DHT22;9834;48.076;11.878;2022-12-29T03:25:42;0.90;99.90
19397;DHT22;9834;48.076;11.878;2022-12-29T03:28:12;1.00;99.90
19397;DHT22;9834;48.076;11.878;2022-12-29T03:30:41;1.10;99.90
19397;DHT22;9834;48.076;11.878;2022-12-29T03:33:13;1.00;99.90
19397;DHT22;9834;48.076;11.878;2022-12-29T03:35:43;1.00;99.90
19397;DHT22;9834;48.076;11.878;2022-12-29T03:38:13;1.20;99.90
19397;DHT22;9834;48.076;11.878;2022-12-29T03:40:43;1.10;99.90
19397;DHT22;9834;48.076;11.878;2022-12-29T03:43:12;1.10;99.90
19397;DHT22;9834;48.076;11.878;2022-12-29T03:45:39;1.20;99.90
19397;DHT22;9834;48.076;11.878;2022-12-29T03:48:06;1.30;99.90
19397;DHT22;9834;48.076;11.878;2022-12-29T03:50:34;1.30;99.90
19397;DHT22;9834;48.076;11.878;2022-12-29T03:53:01;1.30;99.90
19397;DHT22;9834;48.076;11.878;2022-12-29T03:55:28;1.40;99.90
19397;DHT22;9834;48.076;11.878;2022-12-29T03:57:55;1.50;99.90
19397;DHT22;9834;48.076;11.878;2022-12-29T04:00:23;1.50;99.90
19397;DHT22;9834;48.076;11.878;2022-12-29T04:02:50;1.70;99.90
19397;DHT22;9834;48.076;11.878;2022-12-29T04:05:17;1.70;99.90
19397;DHT22;9834;48.076;11.878;2022-12-29T04:07:46;1.90;99.90
19397;DHT22;9834;48.076;11.878;2022-12-29T04:10:13;1.90;99.90
19397;DHT22;9834;48.076;11.878;2022-12-29T04:12:40;1.90;99.90
19397;DHT22;9834;48.076;11.878;2022-12-29T04:15:08;2.00;99.90
19397;DHT22;9834;48.076;11.878;2022-12-29T04:17:36;2.10;99.90
19397;DHT22;9834;48.076;11.878;2022-12-29T04:20:03;2.20;99.90
19397;DHT22;9834;48.076;11.878;2022-12-29T04:22:49;2.30;99.90
19397;DHT22;9834;48.076;11.878;2022-12-29T04:25:16;2.30;99.90
19397;DHT22;9834;48.076;11.878;2022-12-29T04:27:43;2.50;99.90
19397;DHT22;9834;48.076;11.878;2022-12-29T04:30:11;2.60;99.90
19397;DHT22;9834;48.076;11.878;2022-12-29T04:32:38;2.60;99.90
19397;DHT22;9834;48.076;11.878;2022-12-29T04:35:05;2.70;99.90
19397;DHT22;9834;48.076;11.878;2022-12-29T04:37:32;2.70;99.90
19397;DHT22;9834;48.076;11.878;2022-12-29T04:40:01;2.60;99.90
19397;DHT22;9834;48.076;11.878;2022-12-29T04:42:28;2.60;99.90
19397;DHT22;9834;48.076;11.878;2022-12-29T04:44:54;2.60;99.90
19397;DHT22;9834;48.076;11.878;2022-12-29T04:47:22;2.70;99.90
19397;DHT22;9834;48.076;11.878;2022-12-29T04:49:49;2.70;99.90
19397;DHT22;9834;48.076;11.878;2022-12-29T04:52:15;2.70;99.90
19397;DHT22;9834;48.076;11.878;2022-12-29T04:54:42;2.80;99.90
19397;DHT22;9834;48.076;11.878;2022-12-29T04:57:11;2.80;99.90
19397;DHT22;9834;48.076;11.878;2022-12-29T04:59:38;2.80;99.90
19397;DHT22;9834;48.076;11.878;2022-12-29T05:02:05;2.80;99.90
19397;DHT22;9834;48.076;11.878;2022-12-29T05:04:32;2.90;99.90
19397;DHT22;9834;48.076;11.878;2022-12-29T05:06:58;3.20;99.90
19397;DHT22;9834;48.076;11.878;2022-12-29T05:09:25;3.30;99.90
19397;DHT22;9834;48.076;11.878;2022-12-29T05:11:53;3.40;99.90
19397;DHT22;9834;48.076;11.878;2022-12-29T05:14:21;3.60;99.90
19397;DHT22;9834;48.076;11.878;2022-12-29T05:16:51;3.60;99.90
19397;DHT22;9834;48.076;11.878;2022-12-29T05:19:18;3.60;99.90
19397;DHT22;9834;48.076;11.878;2022-12-29T05:21:46;3.80;99.90
19397;DHT22;9834;48.076;11.878;2022-12-29T05:24:49;3.80;99.90
19397;DHT22;9834;48.076;11.878;2022-12-29T05:27:35;3.80;99.90
19397;DHT22;9834;48.076;11.878;2022-12-29T05:30:15;3.70;99.90
19397;DHT22;9834;48.076;11.878;2022-12-29T05:32:42;3.60;99.90
19397;DHT22;9834;48.076;11.878;2022-12-29T05:35:09;3.70;99.90
19397;DHT22;9834;48.076;11.878;2022-12-29T05:37:36;3.40;99.90
19397;DHT22;9834;48.076;11.878;2022-12-29T05:40:03;3.40;99.90
19397;DHT22;9834;48.076;11.878;2022-12-29T05:42:31;3.30;99.90
19397;DHT22;9834;48.076;11.878;2022-12-29T05:44:58;3.30;99.90
19397;DHT22;9834;48.076;11.878;2022-12-29T05:47:26;3.30;99.90
19397;DHT22;9834;48.076;11.878;2022-12-29T05:49:53;3.30;99.90
19397;DHT22;9834;48.076;11.878;2022-12-29T05:52:20;3.30;99.90
19397;DHT22;9834;48.076;11.878;2022-12-29T05:54:47;3.30;99.90
19397;DHT22;9834;48.076;11.878;2022-12-29T05:57:14;3.30;99.90
19397;DHT22;9834;48.076;11.878;2022-12-29T05:59:42;3.30;99.90
19397;DHT22;9834;48.076;11.878;2022-12-29T06:02:10;3.20;99.90
19397;DHT22;9834;48.076;11.878;2022-12-29T06:04:41;3.20;99.90
19397;DHT22;9834;48.076;11.878;2022-12-29T06:07:10;3.20;99.90
19397;DHT22;9834;48.076;11.878;2022-12-29T06:09:38;3.20;99.90
19397;DHT22;9834;48.076;11.878;2022-12-29T06:12:05;3.20;99.90
19397;DHT22;9834;48.076;11.878;2022-12-29T06:14:32;3.20;99.90
19397;DHT22;9834;48.076;11.878;2022-12-29T06:16:59;3.30;99.90
19397;DHT22;9834;48.076;11.878;2022-12-29T06:19:26;3.30;99.90
19397;DHT22;9834;48.076;11.878;2022-12-29T06:21:55;3.40;99.90
19397;DHT22;9834;48.076;11.878;2022-12-29T06:24:22;3.40;99.90
19397;DHT22;9834;48.076;11.878;2022-12-29T06:26:49;3.50;99.90
19397;DHT22;9834;48.076;11.878;2022-12-29T06:29:18;3.30;99.90
19397;DHT22;9834;48.076;11.878;2022-12-29T06:31:46;3.50;99.90
19397;DHT22;9834;48.076;11.878;2022-12-29T06:34:14;3.40;99.90
19397;DHT22;9834;48.076;11.878;2022-12-29T06:36:43;3.50;99.90
19397;DHT22;9834;48.076;11.878;2022-12-29T06:39:11;3.40;99.90
19397;DHT22;9834;48.076;11.878;2022-12-29T06:41:38;3.50;99.90
19397;DHT22;9834;48.076;11.878;2022-12-29T06:44:07;3.50;99.90
19397;DHT22;9834;48.076;11.878;2022-12-29T06:46:34;3.50;99.90
19397;DHT22;9834;48.076;11.878;2022-12-29T06:49:01;3.60;99.90
19397;DHT22;9834;48.076;11.878;2022-12-29T06:51:28;3.80;99.90
19397;DHT22;9834;48.076;11.878;2022-12-29T06:53:55;3.80;99.90
19397;DHT22;9834;48.076;11.878;2022-12-29T06:56:24;3.70;99.90
19397;DHT22;9834;48.076;11.878;2022-12-29T06:58:51;3.60;99.90
19397;DHT22;9834;48.076;11.878;2022-12-29T07:01:20;3.50;99.90
19397;DHT22;9834;48.076;11.878;2022-12-29T07:03:47;3.50;99.90
19397;DHT22;9834;48.076;11.878;2022-12-29T07:06:14;3.50;99.90
19397;DHT22;9834;48.076;11.878;2022-12-29T07:08:42;3.50;99.90
19397;DHT22;9834;48.076;11.878;2022-12-29T07:11:10;3.50;99.90
19397;DHT22;9834;48.076;11.878;2022-12-29T07:13:38;3.40;99.90
19397;DHT22;9834;48.076;11.878;2022-12-29T07:16:07;3.50;99.90
19397;DHT22;9834;48.076;11.878;2022-12-29T07:18:34;3.50;99.90
19397;DHT22;9834;48.076;11.878;2022-12-29T07:21:01;3.60;99.90
19397;DHT22;9834;48.076;11.878;2022-12-29T07:23:28;3.60;99.90
19397;DHT22;9834;48.076;11.878;2022-12-29T07:25:59;3.60;99.90
19397;DHT22;9834;48.076;11.878;2022-12-29T07:28:28;3.60;99.90
19397;DHT22;9834;48.076;11.878;2022-12-29T07:30:57;3.70;99.90
19397;DHT22;9834;48.076;11.878;2022-12-29T07:33:24;3.70;99.90
19397;DHT22;9834;48.076;11.878;2022-12-29T07:35:51;3.80;99.90
19397;DHT22;9834;48.076;11.878;2022-12-29T07:38:18;3.70;99.90
19397;DHT22;9834;48.076;11.878;2022-12-29T07:40:45;3.90;99.90
19397;DHT22;9834;48.076;11.878;2022-12-29T07:43:12;3.90;99.90
19397;DHT22;9834;48.076;11.878;2022-12-29T07:45:42;3.90;99.90
19397;DHT22;9834;48.076;11.878;2022-12-29T07:48:10;4.00;99.90
19397;DHT22;9834;48.076;11.878;2022-12-29T07:50:37;4.00;99.90
19397;DHT22;9834;48.076;11.878;2022-12-29T07:53:04;4.10;99.90
19397;DHT22;9834;48.076;11.878;2022-12-29T07:55:31;4.10;99.90
19397;DHT22;9834;48.076;11.878;2022-12-29T07:57:58;4.20;99.90
19397;DHT22;9834;48.076;11.878;2022-12-29T08:00:25;4.30;99.90
19397;DHT22;9834;48.076;11.878;2022-12-29T08:02:52;4.40;99.90
19397;DHT22;9834;48.076;11.878;2022-12-29T08:05:20;4.40;99.90
19397;DHT22;9834;48.076;11.878;2022-12-29T08:07:47;4.40;99.90
19397;DHT22;9834;48.076;11.878;2022-12-29T08:10:15;4.40;99.90
19397;DHT22;9834;48.076;11.878;2022-12-29T08:12:43;4.40;99.90
19397;DHT22;9834;48.076;11.878;2022-12-29T08:15:11;4.20;99.90
19397;DHT22;9834;48.076;11.878;2022-12-29T08:17:38;4.10;99.90
19397;DHT22;9834;48.076;11.878;2022-12-29T08:20:06;4.20;99.90
19397;DHT22;9834;48.076;11.878;2022-12-29T08:22:36;4.20;99.90
19397;DHT22;9834;48.076;11.878;2022-12-29T08:25:04;4.20;99.90
19397;DHT22;9834;48.076;11.878;2022-12-29T08:27:31;4.30;99.90
19397;DHT22;9834;48.076;11.878;2022-12-29T08:29:58;4.40;99.90
19397;DHT22;9834;48.076;11.878;2022-12-29T08:32:26;4.50;99.90
19397;DHT22;9834;48.076;11.878;2022-12-29T08:34:53;4.70;99.90
19397;DHT22;9834;48.076;11.878;2022-12-29T08:37:21;4.80;99.90
19397;DHT22;9834;48.076;11.878;2022-12-29T08:39:49;4.80;99.90
19397;DHT22;9834;48.076;11.878;2022-12-29T08:42:16;5.00;99.90
19397;DHT22;9834;48.076;11.878;2022-12-29T08:44:43;5.00;99.90
19397;DHT22;9834;48.076;11.878;2022-12-29T08:47:11;5.10;99.90
19397;DHT22;9834;48.076;11.878;2022-12-29T08:49:38;5.10;99.90
19397;DHT22;9834;48.076;11.878;2022-12-29T08:52:05;5.20;99.90
19397;DHT22;9834;48.076;11.878;2022-12-29T08:54:32;5.20;99.90
19397;DHT22;9834;48.076;11.878;2022-12-29T08:57:00;5.20;99.90
19397;DHT22;9834;48.076;11.878;2022-12-29T08:59:27;5.40;99.90
19397;DHT22;9834;48.076;11.878;2022-12-29T09:01:54;5.50;99.90
19397;DHT22;9834;48.076;11.878;2022-12-29T09:04:23;5.60;99.90
19397;DHT22;9834;48.076;11.878;2022-12-29T09:06:50;5.90;99.90
19397;DHT22;9834;48.076;11.878;2022-12-29T09:09:17;5.90;99.90
19397;DHT22;9834;48.076;11.878;2022-12-29T09:11:46;6.20;99.90
19397;DHT22;9834;48.076;11.878;2022-12-29T09:14:15;6.20;99.90
19397;DHT22;9834;48.076;11.878;2022-12-29T09:16:44;6.20;99.90
19397;DHT22;9834;48.076;11.878;2022-12-29T09:19:28;6.30;99.90
19397;DHT22;9834;48.076;11.878;2022-12-29T09:21:55;6.20;99.90
19397;DHT22;9834;48.076;11.878;2022-12-29T09:24:25;6.20;99.90
19397;DHT22;9834;48.076;11.878;2022-12-29T09:26:52;6.30;99.90
19397;DHT22;9834;48.076;11.878;2022-12-29T09:29:21;6.30;99.50
19397;DHT22;9834;48.076;11.878;2022-12-29T09:31:48;6.20;99.20
19397;DHT22;9834;48.076;11.878;2022-12-29T09:34:15;6.30;99.90
19397;DHT22;9834;48.076;11.878;2022-12-29T09:36:42;6.30;98.40
19397;DHT22;9834;48.076;11.878;2022-12-29T09:39:12;6.40;98.10
19397;DHT22;9834;48.076;11.878;2022-12-29T09:41:45;6.60;97.40
19397;DHT22;9834;48.076;11.878;2022-12-29T09:44:23;6.80;97.40
19397;DHT22;9834;48.076;11.878;2022-12-29T09:46:54;7.00;96.80
19397;DHT22;9834;48.076;11.878;2022-12-29T09:49:27;7.20;94.70
19397;DHT22;9834;48.076;11.878;2022-12-29T09:52:00;7.40;94.50
19397;DHT22;9834;48.076;11.878;2022-12-29T09:54:46;7.50;93.70
19397;DHT22;9834;48.076;11.878;2022-12-29T09:57:18;7.80;92.40
19397;DHT22;9834;48.076;11.878;2022-12-29T09:59:50;7.90;91.80
19397;DHT22;9834;48.076;11.878;2022-12-29T10:02:34;8.10;91.70
19397;DHT22;9834;48.076;11.878;2022-12-29T10:05:04;8.30;90.80
19397;DHT22;9834;48.076;11.878;2022-12-29T10:07:47;8.60;87.20
19397;DHT22;9834;48.076;11.878;2022-12-29T10:10:30;9.20;89.00
19397;DHT22;9834;48.076;11.878;2022-12-29T10:13:05;9.80;82.70
19397;DHT22;9834;48.076;11.878;2022-12-29T10:15:54;10.30;81.20
19397;DHT22;9834;48.076;11.878;2022-12-29T10:18:37;10.50;78.60
19397;DHT22;9834;48.076;11.878;2022-12-29T10:21:16;10.50;76.20
19397;DHT22;9834;48.076;11.878;2022-12-29T10:23:51;10.50;79.50
19397;DHT22;9834;48.076;11.878;2022-12-29T10:26:21;10.50;79.10
19397;DHT22;9834;48.076;11.878;2022-12-29T10:28:54;10.50;78.90
19397;DHT22;9834;48.076;11.878;2022-12-29T10:31:26;10.40;78.60
19397;DHT22;9834;48.076;11.878;2022-12-29T10:33:58;10.40;78.40
19397;DHT22;9834;48.076;11.878;2022-12-29T10:36:30;10.20;75.20
19397;DHT22;9834;48.076;11.878;2022-12-29T10:39:06;10.00;77.90
19397;DHT22;9834;48.076;11.878;2022-12-29T10:41:44;9.90;79.10
19397;DHT22;9834;48.076;11.878;2022-12-29T10:44:14;9.90;80.40
19397;DHT22;9834;48.076;11.878;2022-12-29T10:46:44;9.90;79.60
19397;DHT22;9834;48.076;11.878;2022-12-29T10:49:18;9.80;80.20
19397;DHT22;9834;48.076;11.878;2022-12-29T10:51:47;9.80;78.70
19397;DHT22;9834;48.076;11.878;2022-12-29T10:54:21;9.90;76.30
19397;DHT22;9834;48.076;11.878;2022-12-29T10:56:53;10.00;74.50
19397;DHT22;9834;48.076;11.878;2022-12-29T10:59:23;10.20;72.20
19397;DHT22;9834;48.076;11.878;2022-12-29T11:01:58;10.30;72.30
19397;DHT22;9834;48.076;11.878;2022-12-29T11:04:40;10.40;73.40
19397;DHT22;9834;48.076;11.878;2022-12-29T11:07:11;10.50;74.10
19397;DHT22;9834;48.076;11.878;2022-12-29T11:09:39;10.70;75.40
19397;DHT22;9834;48.076;11.878;2022-12-29T11:12:19;10.80;75.70
19397;DHT22;9834;48.076;11.878;2022-12-29T11:14:46;10.90;75.40
19397;DHT22;9834;48.076;11.878;2022-12-29T11:17:16;10.90;73.40
19397;DHT22;9834;48.076;11.878;2022-12-29T11:19:43;11.00;74.00
19397;DHT22;9834;48.076;11.878;2022-12-29T11:22:20;11.10;75.50
19397;DHT22;9834;48.076;11.878;2022-12-29T11:24:51;11.10;75.10
19397;DHT22;9834;48.076;11.878;2022-12-29T11:27:20;11.20;73.40
19397;DHT22;9834;48.076;11.878;2022-12-29T11:29:49;11.10;73.30
19397;DHT22;9834;48.076;11.878;2022-12-29T11:32:20;11.20;75.40
19397;DHT22;9834;48.076;11.878;2022-12-29T11:34:48;11.20;75.80
19397;DHT22;9834;48.076;11.878;2022-12-29T11:37:17;11.20;75.20
19397;DHT22;9834;48.076;11.878;2022-12-29T11:39:50;11.20;74.90
19397;DHT22;9834;48.076;11.878;2022-12-29T11:42:20;11.20;75.10
19397;DHT22;9834;48.076;11.878;2022-12-29T11:44:49;11.30;75.80
19397;DHT22;9834;48.076;11.878;2022-12-29T11:47:29;11.20;76.00
19397;DHT22;9834;48.076;11.878;2022-12-29T11:50:00;11.30;76.00
19397;DHT22;9834;48.076;11.878;2022-12-29T11:52:31;11.40;75.40
19397;DHT22;9834;48.076;11.878;2022-12-29T11:55:02;11.60;74.80
19397;DHT22;9834;48.076;11.878;2022-12-29T11:57:33;11.80;74.20
19397;DHT22;9834;48.076;11.878;2022-12-29T12:00:03;11.70;73.00
19397;DHT22;9834;48.076;11.878;2022-12-29T12:02:42;11.70;72.40
19397;DHT22;9834;48.076;11.878;2022-12-29T12:05:22;11.60;73.70
19397;DHT22;9834;48.076;11.878;2022-12-29T12:07:55;11.70;75.30
19397;DHT22;9834;48.076;11.878;2022-12-29T12:10:28;11.80;74.50
19397;DHT22;9834;48.076;11.878;2022-12-29T12:13:02;11.80;74.10
19397;DHT22;9834;48.076;11.878;2022-12-29T12:15:36;11.60;73.70
19397;DHT22;9834;48.076;11.878;2022-12-29T12:18:11;11.40;75.40
19397;DHT22;9834;48.076;11.878;2022-12-29T12:20:44;11.20;76.00
19397;DHT22;9834;48.076;11.878;2022-12-29T12:23:24;11.10;74.80
19397;DHT22;9834;48.076;11.878;2022-12-29T12:25:57;10.90;75.40
19397;DHT22;9834;48.076;11.878;2022-12-29T12:28:36;10.90;76.70
19397;DHT22;9834;48.076;11.878;2022-12-29T12:31:06;10.80;77.30
19397;DHT22;9834;48.076;11.878;2022-12-29T12:33:48;10.90;76.50
19397;DHT22;9834;48.076;11.878;2022-12-29T12:36:41;11.10;77.70
19397;DHT22;9834;48.076;11.878;2022-12-29T12:39:12;11.40;75.30
19397;DHT22;9834;48.076;11.878;2022-12-29T12:41:50;11.50;73.60
19397;DHT22;9834;48.076;11.878;2022-12-29T12:44:28;11.70;75.50
19397;DHT22;9834;48.076;11.878;2022-12-29T12:47:15;11.90;73.80
19397;DHT22;9834;48.076;11.878;2022-12-29T12:50:07;12.20;74.80
19397;DHT22;9834;48.076;11.878;2022-12-29T12:52:48;12.40;70.90
19397;DHT22;9834;48.076;11.878;2022-12-29T12:55:43;12.60;69.80
19397;DHT22;9834;48.076;11.878;2022-12-29T12:58:20;12.70;69.70
19397;DHT22;9834;48.076;11.878;2022-12-29T13:01:01;12.80;69.60
19397;DHT22;9834;48.076;11.878;2022-12-29T13:03:39;12.90;68.40
19397;DHT22;9834;48.076;11.878;2022-12-29T13:06:21;13.20;66.90
19397;DHT22;9834;48.076;11.878;2022-12-29T13:09:08;13.50;65.70
19397;DHT22;9834;48.076;11.878;2022-12-29T13:11:54;13.90;67.30
19397;DHT22;9834;48.076;11.878;2022-12-29T13:14:36;14.20;65.10
19397;DHT22;9834;48.076;11.878;2022-12-29T13:17:09;14.50;63.70
19397;DHT22;9834;48.076;11.878;2022-12-29T13:19:42;14.80;65.10
19397;DHT22;9834;48.076;11.878;2022-12-29T13:22:16;15.00;65.60
19397;DHT22;9834;48.076;11.878;2022-12-29T13:24:54;15.00;65.00
19397;DHT22;9834;48.076;11.878;2022-12-29T13:27:28;15.10;65.40
19397;DHT22;9834;48.076;11.878;2022-12-29T13:30:03;15.10;64.20
19397;DHT22;9834;48.076;11.878;2022-12-29T13:32:42;14.80;63.30
19397;DHT22;9834;48.076;11.878;2022-12-29T13:35:31;15.00;58.80
19397;DHT22;9834;48.076;11.878;2022-12-29T13:38:09;15.30;54.70
19397;DHT22;9834;48.076;11.878;2022-12-29T13:40:41;15.30;54.50
19397;DHT22;9834;48.076;11.878;2022-12-29T13:43:11;14.90;53.00
19397;DHT22;9834;48.076;11.878;2022-12-29T13:45:39;14.50;53.60
19397;DHT22;9834;48.076;11.878;2022-12-29T13:48:11;14.40;53.60
19397;DHT22;9834;48.076;11.878;2022-12-29T13:50:44;14.70;53.00
19397;DHT22;9834;48.076;11.878;2022-12-29T13:53:19;15.20;55.20
19397;DHT22;9834;48.076;11.878;2022-12-29T13:55:54;15.10;54.70
19397;DHT22;9834;48.076;11.878;2022-12-29T13:58:27;14.70;56.60
19397;DHT22;9834;48.076;11.878;2022-12-29T14:01:07;14.20;58.70
19397;DHT22;9834;48.076;11.878;2022-12-29T14:03:47;13.70;63.40
19397;DHT22;9834;48.076;11.878;2022-12-29T14:06:21;13.30;66.40
19397;DHT22;9834;48.076;11.878;2022-12-29T14:08:53;12.80;66.40
19397;DHT22;9834;48.076;11.878;2022-12-29T14:11:28;12.50;68.70
19397;DHT22;9834;48.076;11.878;2022-12-29T14:13:57;12.10;71.80
19397;DHT22;9834;48.076;11.878;2022-12-29T14:16:29;11.70;73.80
19397;DHT22;9834;48.076;11.878;2022-12-29T14:19:11;11.40;75.10
19397;DHT22;9834;48.076;11.878;2022-12-29T14:21:40;11.00;76.40
19397;DHT22;9834;48.076;11.878;2022-12-29T14:24:39;10.70;78.00
19397;DHT22;9834;48.076;11.878;2022-12-29T14:30:58;10.20;83.40
19397;DHT22;9834;48.076;11.878;2022-12-29T14:33:27;9.80;87.30
19397;DHT22;9834;48.076;11.878;2022-12-29T14:35:55;9.60;86.30
19397;DHT22;9834;48.076;11.878;2022-12-29T14:38:28;9.50;87.70
19397;DHT22;9834;48.076;11.878;2022-12-29T14:41:18;9.30;88.80
19397;DHT22;9834;48.076;11.878;2022-12-29T14:43:58;9.20;89.90
19397;DHT22;9834;48.076;11.878;2022-12-29T14:46:46;9.10;90.20
19397;DHT22;9834;48.076;11.878;2022-12-29T14:49:18;9.00;90.70
19397;DHT22;9834;48.076;11.878;2022-12-29T14:51:46;8.90;91.10
19397;DHT22;9834;48.076;11.878;2022-12-29T14:54:47;8.80;91.40
19397;DHT22;9834;48.076;11.878;2022-12-29T14:57:40;8.80;92.00
19397;DHT22;9834;48.076;11.878;2022-12-29T15:00:16;8.70;91.60
19397;DHT22;9834;48.076;11.878;2022-12-29T15:02:50;8.60;92.50
19397;DHT22;9834;48.076;11.878;2022-12-29T15:05:30;8.50;92.60
19397;DHT22;9834;48.076;11.878;2022-12-29T15:07:58;8.40;93.20
19397;DHT22;9834;48.076;11.878;2022-12-29T15:10:27;8.20;93.70
19397;DHT22;9834;48.076;11.878;2022-12-29T15:13:04;8.00;94.40
19397;DHT22;9834;48.076;11.878;2022-12-29T15:15:36;7.80;95.70
19397;DHT22;9834;48.076;11.878;2022-12-29T15:18:15;7.60;97.30
19397;DHT22;9834;48.076;11.878;2022-12-29T15:20:55;7.50;98.10
19397;DHT22;9834;48.076;11.878;2022-12-29T15:23:25;7.30;99.10
19397;DHT22;9834;48.076;11.878;2022-12-29T15:25:55;7.20;99.90
19397;DHT22;9834;48.076;11.878;2022-12-29T15:28:24;7.10;99.90
19397;DHT22;9834;48.076;11.878;2022-12-29T15:30:56;7.00;99.90
19397;DHT22;9834;48.076;11.878;2022-12-29T15:33:28;6.90;99.90
19397;DHT22;9834;48.076;11.878;2022-12-29T15:35:57;6.90;99.90
19397;DHT22;9834;48.076;11.878;2022-12-29T15:38:30;6.70;99.90
19397;DHT22;9834;48.076;11.878;2022-12-29T15:41:00;6.60;99.90
19397;DHT22;9834;48.076;11.878;2022-12-29T15:43:49;6.50;99.90
19397;DHT22;9834;48.076;11.878;2022-12-29T15:46:19;6.40;99.90
19397;DHT22;9834;48.076;11.878;2022-12-29T15:48:46;6.40;99.90
19397;DHT22;9834;48.076;11.878;2022-12-29T15:51:19;6.30;99.90
19397;DHT22;9834;48.076;11.878;2022-12-29T15:53:48;6.20;99.90
19397;DHT22;9834;48.076;11.878;2022-12-29T15:56:16;6.10;99.90
19397;DHT22;9834;48.076;11.878;2022-12-29T15:58:47;6.00;99.90
19397;DHT22;9834;48.076;11.878;2022-12-29T16:01:19;5.90;99.90
19397;DHT22;9834;48.076;11.878;2022-12-29T16:03:47;5.90;99.90
19397;DHT22;9834;48.076;11.878;2022-12-29T16:06:29;5.90;99.90
19397;DHT22;9834;48.076;11.878;2022-12-29T16:08:58;5.90;99.90
19397;DHT22;9834;48.076;11.878;2022-12-29T16:11:27;5.80;99.90
19397;DHT22;9834;48.076;11.878;2022-12-29T16:14:01;5.80;99.90
19397;DHT22;9834;48.076;11.878;2022-12-29T16:16:32;5.80;99.90
19397;DHT22;9834;48.076;11.878;2022-12-29T16:19:05;5.80;99.90